Forbes, North Dakota
Current Conditions -  °F | °C
As of 12:53 PM on Friday 31 Oct 2014 (Local Time) from KABR Reporting Station
Clear Clear  
Wind Chill: 30°   Ceiling: Unl
Heat Index: 35°   Visibility: 10mi
Dew Point: 17°   Wind: 6mph
Humidity: 48%   Direction: 150°SSE
Pressure: 30.54"   Gusts: NA
Location:  45.94°N, 98.78°W
Report Text: KABR 311753Z AUTO 15005KT 10SM CLR 02/M08 A3054 RMK AO2 SLP360 T00171083 10022 21111 58020
Loading
Personal Weather Stations






























Interactive Weather Map
Tropical Storm Tracking
New forecast layout! Learn more

10-Day Weather Forecast

Advertisements
Track Severe Weather on mobile